sensor_id;sensor_type;location;lat;lon;timestamp;P1;P2;P0
69746;PMS7003;57018;50.278;19.134;2022-08-25T06:41:02;23.00;19.00;12.00
69746;PMS7003;57018;50.278;19.134;2022-08-25T06:43:29;12.25;11.75;8.00
69746;PMS7003;57018;50.278;19.134;2022-08-25T06:46:10;15.25;13.25;8.75
69746;PMS7003;57018;50.278;19.134;2022-08-25T06:48:38;16.50;15.50;11.00
69746;PMS7003;57018;50.278;19.134;2022-08-25T06:51:10;21.25;18.25;12.25
69746;PMS7003;57018;50.278;19.134;2022-08-25T06:53:34;20.50;18.50;11.25
69746;PMS7003;57018;50.278;19.134;2022-08-25T06:56:00;22.50;17.00;10.75
69746;PMS7003;57018;50.278;19.134;2022-08-25T06:58:27;15.75;15.25;10.25
69746;PMS7003;57018;50.278;19.134;2022-08-25T07:00:54;16.50;16.00;12.25
69746;PMS7003;57018;50.278;19.134;2022-08-25T07:03:21;22.50;18.75;12.25
69746;PMS7003;57018;50.278;19.134;2022-08-25T07:05:51;22.75;18.50;12.00
69746;PMS7003;57018;50.278;19.134;2022-08-25T07:08:19;18.00;16.50;10.25
69746;PMS7003;57018;50.278;19.134;2022-08-25T07:10:45;20.75;17.50;12.50
69746;PMS7003;57018;50.278;19.134;2022-08-25T07:13:12;16.50;16.50;11.50
69746;PMS7003;57018;50.278;19.134;2022-08-25T07:15:38;23.75;18.25;12.75
69746;PMS7003;57018;50.278;19.134;2022-08-25T07:18:05;19.75;16.50;11.25
69746;PMS7003;57018;50.278;19.134;2022-08-25T07:20:36;21.50;18.75;10.50
69746;PMS7003;57018;50.278;19.134;2022-08-25T07:23:03;18.50;17.00;11.75
69746;PMS7003;57018;50.278;19.134;2022-08-25T07:25:30;17.00;17.00;11.00
69746;PMS7003;57018;50.278;19.134;2022-08-25T07:27:56;18.00;16.50;10.50
69746;PMS7003;57018;50.278;19.134;2022-08-25T07:30:23;17.00;16.25;11.50
69746;PMS7003;57018;50.278;19.134;2022-08-25T07:32:49;18.00;15.50;11.25
69746;PMS7003;57018;50.278;19.134;2022-08-25T07:35:15;21.25;19.25;12.75
69746;PMS7003;57018;50.278;19.134;2022-08-25T07:37:43;21.75;16.25;11.00
69746;PMS7003;57018;50.278;19.134;2022-08-25T07:40:16;16.00;16.00;11.00
69746;PMS7003;57018;50.278;19.134;2022-08-25T07:42:42;17.50;17.50;12.00
69746;PMS7003;57018;50.278;19.134;2022-08-25T07:45:09;16.00;16.00;11.50
69746;PMS7003;57018;50.278;19.134;2022-08-25T07:47:36;19.00;16.00;9.75
69746;PMS7003;57018;50.278;19.134;2022-08-25T07:50:05;17.75;16.50;11.25
69746;PMS7003;57018;50.278;19.134;2022-08-25T07:52:33;23.00;20.75;12.25
69746;PMS7003;57018;50.278;19.134;2022-08-25T07:54:59;16.75;14.75;11.00
69746;PMS7003;57018;50.278;19.134;2022-08-25T07:57:26;22.50;20.75;11.00
69746;PMS7003;57018;50.278;19.134;2022-08-25T07:59:54;17.50;15.75;11.50
69746;PMS7003;57018;50.278;19.134;2022-08-25T08:02:23;18.75;17.50;11.50
69746;PMS7003;57018;50.278;19.134;2022-08-25T08:04:51;21.75;16.50;12.00
69746;PMS7003;57018;50.278;19.134;2022-08-25T08:07:19;15.50;13.00;10.00
69746;PMS7003;57018;50.278;19.134;2022-08-25T08:09:47;14.50;14.25;9.00
69746;PMS7003;57018;50.278;19.134;2022-08-25T08:12:13;17.00;15.25;10.50
69746;PMS7003;57018;50.278;19.134;2022-08-25T08:14:39;21.00;16.75;12.50
69746;PMS7003;57018;50.278;19.134;2022-08-25T08:17:06;19.75;17.25;11.75
69746;PMS7003;57018;50.278;19.134;2022-08-25T08:19:33;23.50;21.25;12.75
69746;PMS7003;57018;50.278;19.134;2022-08-25T08:22:01;19.25;16.50;10.50
69746;PMS7003;57018;50.278;19.134;2022-08-25T08:24:28;26.75;21.50;13.25
69746;PMS7003;57018;50.278;19.134;2022-08-25T08:26:55;24.00;19.75;12.50
69746;PMS7003;57018;50.278;19.134;2022-08-25T08:29:22;22.25;20.75;13.75
69746;PMS7003;57018;50.278;19.134;2022-08-25T08:31:48;15.75;15.50;10.75
69746;PMS7003;57018;50.278;19.134;2022-08-25T08:34:14;18.50;17.50;12.25
69746;PMS7003;57018;50.278;19.134;2022-08-25T08:36:41;19.50;19.00;11.50
69746;PMS7003;57018;50.278;19.134;2022-08-25T08:39:07;22.00;17.50;11.50
69746;PMS7003;57018;50.278;19.134;2022-08-25T08:41:36;18.75;15.75;10.50
69746;PMS7003;57018;50.278;19.134;2022-08-25T08:47:18;17.25;14.75;10.75
69746;PMS7003;57018;50.278;19.134;2022-08-25T08:52:59;20.75;18.25;11.00
69746;PMS7003;57018;50.278;19.134;2022-08-25T08:55:31;21.75;18.50;13.50
69746;PMS7003;57018;50.278;19.134;2022-08-25T08:58:00;19.75;17.25;13.25
69746;PMS7003;57018;50.278;19.134;2022-08-25T09:00:32;19.25;17.50;12.75
69746;PMS7003;57018;50.278;19.134;2022-08-25T09:05:43;26.75;20.75;12.50
69746;PMS7003;57018;50.278;19.134;2022-08-25T09:08:14;27.75;21.25;14.75
69746;PMS7003;57018;50.278;19.134;2022-08-25T09:16:05;25.75;24.75;15.75
69746;PMS7003;57018;50.278;19.134;2022-08-25T09:27:45;24.25;23.25;14.25
69746;PMS7003;57018;50.278;19.134;2022-08-25T09:30:27;28.25;27.25;17.00
69746;PMS7003;57018;50.278;19.134;2022-08-25T09:32:56;28.50;22.50;14.75
69746;PMS7003;57018;50.278;19.134;2022-08-25T09:35:29;24.25;20.00;13.00
69746;PMS7003;57018;50.278;19.134;2022-08-25T09:37:58;29.00;24.75;16.25
69746;PMS7003;57018;50.278;19.134;2022-08-25T09:40:44;16.75;16.75;13.00
69746;PMS7003;57018;50.278;19.134;2022-08-25T09:51:00;19.00;17.25;12.50
69746;PMS7003;57018;50.278;19.134;2022-08-25T09:53:29;22.00;21.25;15.75
69746;PMS7003;57018;50.278;19.134;2022-08-25T09:55:59;21.25;18.75;13.75
69746;PMS7003;57018;50.278;19.134;2022-08-25T09:58:25;15.00;12.50;9.50
69746;PMS7003;57018;50.278;19.134;2022-08-25T10:03:35;18.50;18.00;13.00
69746;PMS7003;57018;50.278;19.134;2022-08-25T10:06:08;26.75;21.50;13.50
69746;PMS7003;57018;50.278;19.134;2022-08-25T10:11:14;19.50;17.50;13.75
69746;PMS7003;57018;50.278;19.134;2022-08-25T10:14:03;18.75;18.25;12.50
69746;PMS7003;57018;50.278;19.134;2022-08-25T10:16:32;22.00;18.50;12.25
69746;PMS7003;57018;50.278;19.134;2022-08-25T10:19:21;20.75;17.75;11.25
69746;PMS7003;57018;50.278;19.134;2022-08-25T10:24:24;22.25;16.25;11.75
69746;PMS7003;57018;50.278;19.134;2022-08-25T10:34:56;20.00;16.75;11.75
69746;PMS7003;57018;50.278;19.134;2022-08-25T10:42:32;19.00;16.75;12.00
69746;PMS7003;57018;50.278;19.134;2022-08-25T10:56:10;17.25;16.50;11.75
69746;PMS7003;57018;50.278;19.134;2022-08-25T11:04:19;15.00;14.50;9.00
69746;PMS7003;57018;50.278;19.134;2022-08-25T11:07:02;18.25;15.75;10.25
69746;PMS7003;57018;50.278;19.134;2022-08-25T11:09:44;17.75;16.00;8.75
69746;PMS7003;57018;50.278;19.134;2022-08-25T11:12:24;15.75;14.75;10.75
69746;PMS7003;57018;50.278;19.134;2022-08-25T11:14:50;15.50;14.75;9.25
69746;PMS7003;57018;50.278;19.134;2022-08-25T11:17:25;16.75;13.50;8.75
69746;PMS7003;57018;50.278;19.134;2022-08-25T11:20:07;18.25;14.50;10.00
69746;PMS7003;57018;50.278;19.134;2022-08-25T11:22:46;12.25;11.75;8.50
69746;PMS7003;57018;50.278;19.134;2022-08-25T11:25:13;13.50;13.50;8.75
69746;PMS7003;57018;50.278;19.134;2022-08-25T11:30:48;13.50;12.50;9.00
69746;PMS7003;57018;50.278;19.134;2022-08-25T11:33:17;12.50;12.00;8.50
69746;PMS7003;57018;50.278;19.134;2022-08-25T11:35:56;13.75;12.50;9.50
69746;PMS7003;57018;50.278;19.134;2022-08-25T11:50:22;14.00;14.00;9.00
69746;PMS7003;57018;50.278;19.134;2022-08-25T11:57:40;15.75;14.25;10.00
69746;PMS7003;57018;50.278;19.134;2022-08-25T12:03:50;12.00;12.00;8.25
69746;PMS7003;57018;50.278;19.134;2022-08-25T12:08:16;21.00;16.50;11.00
69746;PMS7003;57018;50.278;19.134;2022-08-25T12:10:57;17.00;13.25;8.25
69746;PMS7003;57018;50.278;19.134;2022-08-25T12:13:47;13.25;12.50;9.25
69746;PMS7003;57018;50.278;19.134;2022-08-25T12:27:26;13.25;13.25;10.00
69746;PMS7003;57018;50.278;19.134;2022-08-25T12:29:57;16.50;12.75;8.50
69746;PMS7003;57018;50.278;19.134;2022-08-25T12:38:26;17.50;17.00;11.25
69746;PMS7003;57018;50.278;19.134;2022-08-25T12:43:45;11.75;11.25;8.25
69746;PMS7003;57018;50.278;19.134;2022-08-25T12:49:28;14.50;11.25;8.75
69746;PMS7003;57018;50.278;19.134;2022-08-25T12:54:20;13.75;11.50;7.75
69746;PMS7003;57018;50.278;19.134;2022-08-25T12:56:57;10.00;8.50;7.75
69746;PMS7003;57018;50.278;19.134;2022-08-25T12:59:32;10.25;9.50;7.00
69746;PMS7003;57018;50.278;19.134;2022-08-25T13:02:06;11.75;10.50;8.25
69746;PMS7003;57018;50.278;19.134;2022-08-25T13:07:36;12.75;11.00;8.50
69746;PMS7003;57018;50.278;19.134;2022-08-25T13:15:13;15.25;13.50;9.25
69746;PMS7003;57018;50.278;19.134;2022-08-25T13:17:41;14.00;11.75;6.00
69746;PMS7003;57018;50.278;19.134;2022-08-25T13:20:11;15.00;11.75;8.50
69746;PMS7003;57018;50.278;19.134;2022-08-25T13:22:38;13.25;12.75;7.25
69746;PMS7003;57018;50.278;19.134;2022-08-25T13:25:05;12.75;12.00;8.25
69746;PMS7003;57018;50.278;19.134;2022-08-25T13:30:15;13.50;13.25;8.75
69746;PMS7003;57018;50.278;19.134;2022-08-25T13:32:39;15.25;13.75;8.75
69746;PMS7003;57018;50.278;19.134;2022-08-25T13:35:21;9.00;8.25;6.25
69746;PMS7003;57018;50.278;19.134;2022-08-25T13:37:53;13.75;10.50;7.25
69746;PMS7003;57018;50.278;19.134;2022-08-25T13:42:50;12.00;10.25;7.50
69746;PMS7003;57018;50.278;19.134;2022-08-25T13:45:21;12.25;9.75;7.25
69746;PMS7003;57018;50.278;19.134;2022-08-25T13:47:48;11.25;11.25;8.00
69746;PMS7003;57018;50.278;19.134;2022-08-25T13:52:55;18.50;11.00;7.00
69746;PMS7003;57018;50.278;19.134;2022-08-25T13:58:17;12.00;11.25;7.50
69746;PMS7003;57018;50.278;19.134;2022-08-25T14:06:05;9.25;9.25;7.50
69746;PMS7003;57018;50.278;19.134;2022-08-25T14:08:34;12.50;10.50;7.75
69746;PMS7003;57018;50.278;19.134;2022-08-25T14:11:13;9.75;8.00;6.00
69746;PMS7003;57018;50.278;19.134;2022-08-25T14:13:43;15.25;10.00;7.75
69746;PMS7003;57018;50.278;19.134;2022-08-25T14:16:22;11.50;11.00;8.25
69746;PMS7003;57018;50.278;19.134;2022-08-25T14:18:52;9.75;9.75;7.50
69746;PMS7003;57018;50.278;19.134;2022-08-25T14:21:24;9.50;8.75;5.50
69746;PMS7003;57018;50.278;19.134;2022-08-25T14:23:55;11.50;10.00;7.00
69746;PMS7003;57018;50.278;19.134;2022-08-25T14:26:23;8.50;6.25;4.25
69746;PMS7003;57018;50.278;19.134;2022-08-25T14:28:49;11.00;8.25;6.00
69746;PMS7003;57018;50.278;19.134;2022-08-25T14:31:29;9.75;9.25;6.00
69746;PMS7003;57018;50.278;19.134;2022-08-25T14:34:00;11.00;9.00;6.00
69746;PMS7003;57018;50.278;19.134;2022-08-25T14:36:32;9.50;8.50;5.50
69746;PMS7003;57018;50.278;19.134;2022-08-25T14:39:00;11.50;10.75;5.75
69746;PMS7003;57018;50.278;19.134;2022-08-25T14:41:31;10.50;10.25;7.25
69746;PMS7003;57018;50.278;19.134;2022-08-25T14:44:02;9.50;7.00;5.75
69746;PMS7003;57018;50.278;19.134;2022-08-25T14:46:31;10.75;9.00;5.00
69746;PMS7003;57018;50.278;19.134;2022-08-25T14:49:01;7.75;7.75;6.25
69746;PMS7003;57018;50.278;19.134;2022-08-25T14:51:30;9.25;9.25;6.50
69746;PMS7003;57018;50.278;19.134;2022-08-25T14:54:02;10.50;9.00;7.00
69746;PMS7003;57018;50.278;19.134;2022-08-25T14:56:30;10.25;9.00;6.25
69746;PMS7003;57018;50.278;19.134;2022-08-25T14:58:58;9.50;9.50;5.50
69746;PMS7003;57018;50.278;19.134;2022-08-25T15:01:25;10.50;8.75;6.00
69746;PMS7003;57018;50.278;19.134;2022-08-25T15:03:53;5.75;5.00;2.00
69746;PMS7003;57018;50.278;19.134;2022-08-25T15:06:21;5.75;3.25;3.25
69746;PMS7003;57018;50.278;19.134;2022-08-25T15:08:48;11.50;8.50;5.25
69746;PMS7003;57018;50.278;19.134;2022-08-25T15:11:33;9.00;7.50;5.50
69746;PMS7003;57018;50.278;19.134;2022-08-25T15:14:01;10.50;9.50;7.00
69746;PMS7003;57018;50.278;19.134;2022-08-25T15:19:18;10.25;8.50;5.75
69746;PMS7003;57018;50.278;19.134;2022-08-25T15:21:47;10.50;10.25;5.25
69746;PMS7003;57018;50.278;19.134;2022-08-25T15:24:14;8.25;8.25;6.25
69746;PMS7003;57018;50.278;19.134;2022-08-25T15:26:46;8.00;8.00;5.25
69746;PMS7003;57018;50.278;19.134;2022-08-25T15:29:15;13.75;11.75;8.50
69746;PMS7003;57018;50.278;19.134;2022-08-25T15:31:42;11.25;11.25;9.00
69746;PMS7003;57018;50.278;19.134;2022-08-25T15:34:09;9.25;9.25;6.75
69746;PMS7003;57018;50.278;19.134;2022-08-25T15:36:36;13.25;13.25;9.00
69746;PMS7003;57018;50.278;19.134;2022-08-25T15:39:03;8.00;8.00;6.25
69746;PMS7003;57018;50.278;19.134;2022-08-25T15:41:30;13.25;10.00;7.50
69746;PMS7003;57018;50.278;19.134;2022-08-25T15:43:57;8.75;8.75;6.00
69746;PMS7003;57018;50.278;19.134;2022-08-25T15:46:26;15.00;11.00;9.00
69746;PMS7003;57018;50.278;19.134;2022-08-25T15:48:55;12.00;12.00;9.00
69746;PMS7003;57018;50.278;19.134;2022-08-25T15:51:24;9.00;7.75;5.25
69746;PMS7003;57018;50.278;19.134;2022-08-25T15:53:53;9.25;8.00;4.75
69746;PMS7003;57018;50.278;19.134;2022-08-25T15:56:21;10.50;8.75;5.25
69746;PMS7003;57018;50.278;19.134;2022-08-25T15:58:48;9.50;9.50;6.00
69746;PMS7003;57018;50.278;19.134;2022-08-25T16:01:16;11.75;9.50;6.00
69746;PMS7003;57018;50.278;19.134;2022-08-25T16:03:45;10.25;9.00;6.25
69746;PMS7003;57018;50.278;19.134;2022-08-25T16:06:11;8.00;7.50;6.25
69746;PMS7003;57018;50.278;19.134;2022-08-25T16:08:38;8.75;7.50;5.50
69746;PMS7003;57018;50.278;19.134;2022-08-25T16:11:04;12.25;9.25;6.50
69746;PMS7003;57018;50.278;19.134;2022-08-25T16:13:31;9.50;8.00;6.25
69746;PMS7003;57018;50.278;19.134;2022-08-25T16:15:57;10.75;9.00;6.00
69746;PMS7003;57018;50.278;19.134;2022-08-25T16:18:24;13.75;10.25;6.75
69746;PMS7003;57018;50.278;19.134;2022-08-25T16:20:51;9.00;8.75;6.25
69746;PMS7003;57018;50.278;19.134;2022-08-25T16:23:18;9.00;8.75;6.25
69746;PMS7003;57018;50.278;19.134;2022-08-25T16:25:45;8.00;8.00;4.25
69746;PMS7003;57018;50.278;19.134;2022-08-25T16:28:13;11.50;10.00;7.50
69746;PMS7003;57018;50.278;19.134;2022-08-25T16:30:43;11.00;10.00;8.00
69746;PMS7003;57018;50.278;19.134;2022-08-25T16:33:14;13.50;11.25;8.00
69746;PMS7003;57018;50.278;19.134;2022-08-25T16:35:41;16.00;13.50;9.25
69746;PMS7003;57018;50.278;19.134;2022-08-25T16:38:08;11.75;11.75;7.50
69746;PMS7003;57018;50.278;19.134;2022-08-25T16:40:37;13.25;11.75;7.25
69746;PMS7003;57018;50.278;19.134;2022-08-25T16:43:05;11.50;10.75;6.75
69746;PMS7003;57018;50.278;19.134;2022-08-25T16:45:32;11.50;10.25;7.50
69746;PMS7003;57018;50.278;19.134;2022-08-25T16:47:58;12.50;9.50;6.75
69746;PMS7003;57018;50.278;19.134;2022-08-25T16:50:24;11.75;11.25;7.25
69746;PMS7003;57018;50.278;19.134;2022-08-25T16:52:50;13.50;11.00;8.00
69746;PMS7003;57018;50.278;19.134;2022-08-25T16:55:35;14.75;11.50;8.00
69746;PMS7003;57018;50.278;19.134;2022-08-25T16:58:01;10.50;10.25;7.00
69746;PMS7003;57018;50.278;19.134;2022-08-25T17:00:28;10.75;9.75;8.00
69746;PMS7003;57018;50.278;19.134;2022-08-25T17:03:00;11.75;11.00;8.00
69746;PMS7003;57018;50.278;19.134;2022-08-25T17:05:30;13.50;11.00;8.25
69746;PMS7003;57018;50.278;19.134;2022-08-25T17:07:54;11.50;11.50;8.25
69746;PMS7003;57018;50.278;19.134;2022-08-25T17:10:41;10.00;10.00;6.25
69746;PMS7003;57018;50.278;19.134;2022-08-25T17:13:08;9.75;9.75;7.25
69746;PMS7003;57018;50.278;19.134;2022-08-25T17:15:42;14.25;12.00;9.25
69746;PMS7003;57018;50.278;19.134;2022-08-25T17:18:11;16.75;12.75;7.75
69746;PMS7003;57018;50.278;19.134;2022-08-25T17:20:38;13.50;12.00;8.25
69746;PMS7003;57018;50.278;19.134;2022-08-25T17:23:06;16.50;13.75;8.50
69746;PMS7003;57018;50.278;19.134;2022-08-25T17:25:33;13.50;12.50;7.50
69746;PMS7003;57018;50.278;19.134;2022-08-25T17:28:00;12.25;11.00;7.25
69746;PMS7003;57018;50.278;19.134;2022-08-25T17:30:27;15.50;11.50;8.25
69746;PMS7003;57018;50.278;19.134;2022-08-25T17:32:54;13.25;12.25;8.50
69746;PMS7003;57018;50.278;19.134;2022-08-25T17:35:20;17.75;14.75;10.00
69746;PMS7003;57018;50.278;19.134;2022-08-25T17:37:46;13.50;11.75;7.50
69746;PMS7003;57018;50.278;19.134;2022-08-25T17:40:12;17.50;14.50;8.25
69746;PMS7003;57018;50.278;19.134;2022-08-25T17:42:38;14.75;12.25;9.25
69746;PMS7003;57018;50.278;19.134;2022-08-25T17:45:05;16.25;12.50;8.25
69746;PMS7003;57018;50.278;19.134;2022-08-25T17:47:31;12.50;12.50;7.50
69746;PMS7003;57018;50.278;19.134;2022-08-25T17:49:57;18.25;13.75;11.75
69746;PMS7003;57018;50.278;19.134;2022-08-25T17:52:23;13.50;13.25;9.75
69746;PMS7003;57018;50.278;19.134;2022-08-25T17:54:50;14.25;11.25;8.75
69746;PMS7003;57018;50.278;19.134;2022-08-25T17:57:17;14.75;13.25;9.25
69746;PMS7003;57018;50.278;19.134;2022-08-25T17:59:44;17.75;16.00;9.50
69746;PMS7003;57018;50.278;19.134;2022-08-25T18:02:10;16.50;15.00;10.00
69746;PMS7003;57018;50.278;19.134;2022-08-25T18:04:37;16.00;13.25;10.25
69746;PMS7003;57018;50.278;19.134;2022-08-25T18:07:03;18.25;16.50;10.50
69746;PMS7003;57018;50.278;19.134;2022-08-25T18:09:29;14.75;13.00;9.25
69746;PMS7003;57018;50.278;19.134;2022-08-25T18:11:56;15.75;14.50;11.00
69746;PMS7003;57018;50.278;19.134;2022-08-25T18:14:26;16.50;15.00;11.25
69746;PMS7003;57018;50.278;19.134;2022-08-25T18:16:50;17.50;14.75;10.50
69746;PMS7003;57018;50.278;19.134;2022-08-25T18:19:18;14.25;14.25;8.50
69746;PMS7003;57018;50.278;19.134;2022-08-25T18:21:44;15.75;14.25;10.25
69746;PMS7003;57018;50.278;19.134;2022-08-25T18:24:10;15.25;13.50;8.50
69746;PMS7003;57018;50.278;19.134;2022-08-25T18:26:36;13.75;12.75;10.00
69746;PMS7003;57018;50.278;19.134;2022-08-25T18:29:02;14.75;13.50;10.00
69746;PMS7003;57018;50.278;19.134;2022-08-25T18:31:29;16.25;15.75;9.50
69746;PMS7003;57018;50.278;19.134;2022-08-25T18:33:55;18.00;16.00;10.25
69746;PMS7003;57018;50.278;19.134;2022-08-25T18:36:22;14.50;14.25;10.00
69746;PMS7003;57018;50.278;19.134;2022-08-25T18:38:48;16.50;12.25;8.25
69746;PMS7003;57018;50.278;19.134;2022-08-25T18:41:38;16.75;12.25;9.75
69746;PMS7003;57018;50.278;19.134;2022-08-25T18:44:05;15.00;14.75;9.50
69746;PMS7003;57018;50.278;19.134;2022-08-25T18:46:31;15.75;13.00;8.25
69746;PMS7003;57018;50.278;19.134;2022-08-25T18:48:57;22.75;15.75;10.50
69746;PMS7003;57018;50.278;19.134;2022-08-25T18:51:24;16.25;16.25;10.25
69746;PMS7003;57018;50.278;19.134;2022-08-25T18:53:51;15.00;13.25;9.50
69746;PMS7003;57018;50.278;19.134;2022-08-25T18:56:17;11.75;11.75;9.50
69746;PMS7003;57018;50.278;19.134;2022-08-25T18:58:45;13.75;13.75;8.25
69746;PMS7003;57018;50.278;19.134;2022-08-25T19:01:15;15.25;13.25;9.50
69746;PMS7003;57018;50.278;19.134;2022-08-25T19:03:42;14.00;13.25;8.75
69746;PMS7003;57018;50.278;19.134;2022-08-25T19:06:09;15.00;14.25;11.00
69746;PMS7003;57018;50.278;19.134;2022-08-25T19:08:35;20.00;17.00;12.25
69746;PMS7003;57018;50.278;19.134;2022-08-25T19:11:04;15.25;14.25;10.75
69746;PMS7003;57018;50.278;19.134;2022-08-25T19:13:30;20.50;20.00;13.00
69746;PMS7003;57018;50.278;19.134;2022-08-25T19:15:57;22.75;16.25;12.25
69746;PMS7003;57018;50.278;19.134;2022-08-25T19:18:24;18.75;15.50;12.00
69746;PMS7003;57018;50.278;19.134;2022-08-25T19:20:50;20.00;14.00;10.75
69746;PMS7003;57018;50.278;19.134;2022-08-25T19:23:16;19.00;19.00;11.25
69746;PMS7003;57018;50.278;19.134;2022-08-25T19:25:42;20.25;19.75;13.00
69746;PMS7003;57018;50.278;19.134;2022-08-25T19:28:09;15.50;14.50;10.25
69746;PMS7003;57018;50.278;19.134;2022-08-25T19:30:36;17.75;14.50;10.25
69746;PMS7003;57018;50.278;19.134;2022-08-25T19:33:04;17.50;17.50;10.75
69746;PMS7003;57018;50.278;19.134;2022-08-25T19:35:33;18.75;17.25;13.25
69746;PMS7003;57018;50.278;19.134;2022-08-25T19:38:00;18.25;14.75;11.75
69746;PMS7003;57018;50.278;19.134;2022-08-25T19:40:29;22.00;16.50;11.50
69746;PMS7003;57018;50.278;19.134;2022-08-25T19:42:55;21.00;19.25;12.75
69746;PMS7003;57018;50.278;19.134;2022-08-25T19:45:22;15.50;13.75;9.25
69746;PMS7003;57018;50.278;19.134;2022-08-25T19:47:49;18.00;14.25;9.25
69746;PMS7003;57018;50.278;19.134;2022-08-25T19:50:17;14.50;14.00;11.50
69746;PMS7003;57018;50.278;19.134;2022-08-25T19:52:45;12.50;12.00;9.25
69746;PMS7003;57018;50.278;19.134;2022-08-25T19:55:11;18.75;18.75;12.50
69746;PMS7003;57018;50.278;19.134;2022-08-25T19:57:38;19.75;19.75;12.25
69746;PMS7003;57018;50.278;19.134;2022-08-25T20:00:05;16.75;16.75;13.00
69746;PMS7003;57018;50.278;19.134;2022-08-25T20:02:33;18.75;16.00;12.00
69746;PMS7003;57018;50.278;19.134;2022-08-25T20:04:59;20.25;18.00;12.25
69746;PMS7003;57018;50.278;19.134;2022-08-25T20:07:26;17.75;17.75;11.50
69746;PMS7003;57018;50.278;19.134;2022-08-25T20:09:55;16.00;15.25;10.50
69746;PMS7003;57018;50.278;19.134;2022-08-25T20:12:22;20.00;15.25;11.75
69746;PMS7003;57018;50.278;19.134;2022-08-25T20:14:50;20.75;20.75;13.50
69746;PMS7003;57018;50.278;19.134;2022-08-25T20:17:17;15.00;14.25;10.50
69746;PMS7003;57018;50.278;19.134;2022-08-25T20:19:45;19.50;16.00;12.25
69746;PMS7003;57018;50.278;19.134;2022-08-25T20:22:12;20.50;20.25;15.00
69746;PMS7003;57018;50.278;19.134;2022-08-25T20:24:38;21.75;20.00;13.00
69746;PMS7003;57018;50.278;19.134;2022-08-25T20:27:21;21.25;19.50;12.75
69746;PMS7003;57018;50.278;19.134;2022-08-25T20:29:50;23.25;21.50;14.25
69746;PMS7003;57018;50.278;19.134;2022-08-25T20:32:17;22.50;22.25;15.75
69746;PMS7003;57018;50.278;19.134;2022-08-25T20:34:44;21.50;19.75;14.00
69746;PMS7003;57018;50.278;19.134;2022-08-25T20:37:10;22.25;20.25;12.00
69746;PMS7003;57018;50.278;19.134;2022-08-25T20:39:37;19.50;18.75;12.75
69746;PMS7003;57018;50.278;19.134;2022-08-25T20:42:05;22.75;21.00;16.25
69746;PMS7003;57018;50.278;19.134;2022-08-25T20:44:31;26.50;23.50;15.50
69746;PMS7003;57018;50.278;19.134;2022-08-25T20:47:00;17.50;15.50;11.50
69746;PMS7003;57018;50.278;19.134;2022-08-25T20:49:27;19.50;19.00;12.00
69746;PMS7003;57018;50.278;19.134;2022-08-25T20:51:56;21.00;20.00;13.50
69746;PMS7003;57018;50.278;19.134;2022-08-25T20:54:25;20.50;20.50;16.00
69746;PMS7003;57018;50.278;19.134;2022-08-25T20:56:51;26.00;22.50;17.00
69746;PMS7003;57018;50.278;19.134;2022-08-25T20:59:19;25.00;20.25;15.00
69746;PMS7003;57018;50.278;19.134;2022-08-25T21:01:46;23.50;20.50;15.75
69746;PMS7003;57018;50.278;19.134;2022-08-25T21:04:14;25.25;22.50;15.75
69746;PMS7003;57018;50.278;19.134;2022-08-25T21:06:44;24.50;18.50;12.50
69746;PMS7003;57018;50.278;19.134;2022-08-25T21:09:11;17.50;17.25;12.50
69746;PMS7003;57018;50.278;19.134;2022-08-25T21:11:39;27.75;22.50;16.50
69746;PMS7003;57018;50.278;19.134;2022-08-25T21:14:06;24.00;22.25;16.25
69746;PMS7003;57018;50.278;19.134;2022-08-25T21:16:36;23.00;22.00;16.25
69746;PMS7003;57018;50.278;19.134;2022-08-25T21:19:03;24.50;22.50;14.50
69746;PMS7003;57018;50.278;19.134;2022-08-25T21:21:30;28.00;23.25;16.50
69746;PMS7003;57018;50.278;19.134;2022-08-25T21:23:56;24.50;22.50;15.50
69746;PMS7003;57018;50.278;19.134;2022-08-25T21:26:24;20.50;20.50;14.50
69746;PMS7003;57018;50.278;19.134;2022-08-25T21:28:52;21.50;21.50;15.75
69746;PMS7003;57018;50.278;19.134;2022-08-25T21:31:25;25.75;23.75;16.00
69746;PMS7003;57018;50.278;19.134;2022-08-25T21:33:53;25.75;25.75;17.25
69746;PMS7003;57018;50.278;19.134;2022-08-25T21:36:21;23.25;20.75;15.50
69746;PMS7003;57018;50.278;19.134;2022-08-25T21:38:49;24.00;24.00;16.50
69746;PMS7003;57018;50.278;19.134;2022-08-25T21:41:17;25.75;23.00;16.50
69746;PMS7003;57018;50.278;19.134;2022-08-25T21:43:45;26.75;22.25;16.50
69746;PMS7003;57018;50.278;19.134;2022-08-25T21:46:14;23.75;21.25;16.50
69746;PMS7003;57018;50.278;19.134;2022-08-25T21:48:42;16.50;16.25;14.00
69746;PMS7003;57018;50.278;19.134;2022-08-25T21:51:22;23.75;21.00;14.00
69746;PMS7003;57018;50.278;19.134;2022-08-25T21:53:46;23.00;22.25;15.25
69746;PMS7003;57018;50.278;19.134;2022-08-25T21:56:14;23.25;21.25;15.50
69746;PMS7003;57018;50.278;19.134;2022-08-25T21:58:43;24.00;22.75;16.75
69746;PMS7003;57018;50.278;19.134;2022-08-25T22:01:15;23.50;23.00;15.75
69746;PMS7003;57018;50.278;19.134;2022-08-25T22:03:44;23.25;22.25;16.50
69746;PMS7003;57018;50.278;19.134;2022-08-25T22:06:12;22.50;21.25;14.75
69746;PMS7003;57018;50.278;19.134;2022-08-25T22:08:40;23.25;23.25;16.50
69746;PMS7003;57018;50.278;19.134;2022-08-25T22:11:07;30.25;25.50;18.50
69746;PMS7003;57018;50.278;19.134;2022-08-25T22:13:35;23.75;22.75;15.50
69746;PMS7003;57018;50.278;19.134;2022-08-25T22:16:02;19.50;18.25;12.25
69746;PMS7003;57018;50.278;19.134;2022-08-25T22:18:29;23.50;22.25;16.75
69746;PMS7003;57018;50.278;19.134;2022-08-25T22:20:55;22.50;19.25;13.50
69746;PMS7003;57018;50.278;19.134;2022-08-25T22:23:23;25.00;22.25;16.00
69746;PMS7003;57018;50.278;19.134;2022-08-25T22:25:49;19.25;17.75;10.75
69746;PMS7003;57018;50.278;19.134;2022-08-25T22:28:16;19.75;19.25;14.50
69746;PMS7003;57018;50.278;19.134;2022-08-25T22:30:42;16.25;15.00;10.50
69746;PMS7003;57018;50.278;19.134;2022-08-25T22:33:09;19.00;18.25;12.50
69746;PMS7003;57018;50.278;19.134;2022-08-25T22:35:36;19.00;17.25;11.50
69746;PMS7003;57018;50.278;19.134;2022-08-25T22:38:02;16.50;15.25;10.50
69746;PMS7003;57018;50.278;19.134;2022-08-25T22:40:31;19.50;19.00;13.50
69746;PMS7003;57018;50.278;19.134;2022-08-25T22:43:01;20.50;19.00;12.25
69746;PMS7003;57018;50.278;19.134;2022-08-25T22:45:28;18.25;18.25;12.00
69746;PMS7003;57018;50.278;19.134;2022-08-25T22:47:55;21.25;17.50;11.25
69746;PMS7003;57018;50.278;19.134;2022-08-25T22:50:21;20.00;19.00;13.25
69746;PMS7003;57018;50.278;19.134;2022-08-25T22:52:47;17.00;15.25;10.25
69746;PMS7003;57018;50.278;19.134;2022-08-25T22:55:13;18.00;16.25;10.75
69746;PMS7003;57018;50.278;19.134;2022-08-25T22:57:41;18.50;18.50;12.25